sensor_id;sensor_type;location;lat;lon;timestamp;pressure;altitude;pressure_sealevel;temperature;humidity
83027;BME280;72842;56.038;12.706;2024-03-22T00:01:47;101497.53;;;10.09;62.12
83027;BME280;72842;56.038;12.706;2024-03-22T00:04:13;101501.75;;;10.13;62.29
83027;BME280;72842;56.038;12.706;2024-03-22T00:06:39;101499.06;;;10.13;61.59
83027;BME280;72842;56.038;12.706;2024-03-22T00:09:05;101493.78;;;10.12;62.03
83027;BME280;72842;56.038;12.706;2024-03-22T00:11:30;101492.00;;;10.12;61.93
83027;BME280;72842;56.038;12.706;2024-03-22T00:13:56;101484.91;;;10.11;61.46
83027;BME280;72842;56.038;12.706;2024-03-22T00:16:21;101472.41;;;10.12;61.81
83027;BME280;72842;56.038;12.706;2024-03-22T00:18:47;101472.50;;;10.10;61.80
83027;BME280;72842;56.038;12.706;2024-03-22T00:21:12;101471.53;;;10.11;62.25
83027;BME280;72842;56.038;12.706;2024-03-22T00:23:37;101479.56;;;10.11;62.03
83027;BME280;72842;56.038;12.706;2024-03-22T00:26:03;101474.22;;;10.11;62.46
83027;BME280;72842;56.038;12.706;2024-03-22T00:28:28;101472.50;;;10.10;61.93
83027;BME280;72842;56.038;12.706;2024-03-22T00:30:54;101470.78;;;10.09;62.21
83027;BME280;72842;56.038;12.706;2024-03-22T02:00:14;101295.16;;;9.83;66.01
83027;BME280;72842;56.038;12.706;2024-03-22T02:02:39;101301.38;;;9.83;66.26
83027;BME280;72842;56.038;12.706;2024-03-22T02:05:14;101291.44;;;9.85;65.82
83027;BME280;72842;56.038;12.706;2024-03-22T02:07:41;101288.75;;;9.85;65.93
83027;BME280;72842;56.038;12.706;2024-03-22T02:10:08;101281.59;;;9.86;66.70
83027;BME280;72842;56.038;12.706;2024-03-22T02:12:36;101276.16;;;9.87;66.02
83027;BME280;72842;56.038;12.706;2024-03-22T02:15:02;101260.88;;;9.89;66.13
83027;BME280;72842;56.038;12.706;2024-03-22T02:17:27;101252.97;;;9.88;66.87
83027;BME280;72842;56.038;12.706;2024-03-22T02:19:53;101242.28;;;9.88;66.90
83027;BME280;72842;56.038;12.706;2024-03-22T02:22:18;101238.81;;;9.86;66.94
83027;BME280;72842;56.038;12.706;2024-03-22T02:24:43;101233.47;;;9.86;66.93
83027;BME280;72842;56.038;12.706;2024-03-22T02:27:09;101222.88;;;9.84;67.38
83027;BME280;72842;56.038;12.706;2024-03-22T02:29:34;101216.69;;;9.84;66.89
83027;BME280;72842;56.038;12.706;2024-03-22T02:32:00;101214.03;;;9.84;67.27
83027;BME280;72842;56.038;12.706;2024-03-22T02:34:25;101209.63;;;9.83;67.43
83027;BME280;72842;56.038;12.706;2024-03-22T02:36:50;101175.28;;;9.64;67.03
83027;BME280;72842;56.038;12.706;2024-03-22T02:39:16;101188.38;;;9.81;67.83
83027;BME280;72842;56.038;12.706;2024-03-22T02:41:41;101183.88;;;9.82;67.69
83027;BME280;72842;56.038;12.706;2024-03-22T02:44:07;101144.25;;;9.61;67.58
83027;BME280;72842;56.038;12.706;2024-03-22T02:46:32;101160.97;;;9.78;67.75
83027;BME280;72842;56.038;12.706;2024-03-22T02:48:58;101159.16;;;9.78;68.09
83027;BME280;72842;56.038;12.706;2024-03-22T02:51:23;101162.69;;;9.79;67.80
83027;BME280;72842;56.038;12.706;2024-03-22T02:53:49;101156.38;;;9.80;68.28
83027;BME280;72842;56.038;12.706;2024-03-22T02:56:14;101163.34;;;9.82;68.29
83027;BME280;72842;56.038;12.706;2024-03-22T02:58:40;101159.59;;;9.85;67.86
83027;BME280;72842;56.038;12.706;2024-03-22T03:01:05;101160.78;;;9.81;68.24
83027;BME280;72842;56.038;12.706;2024-03-22T03:03:31;101162.69;;;9.79;68.69
83027;BME280;72842;56.038;12.706;2024-03-22T03:05:56;101152.94;;;9.78;68.71
83027;BME280;72842;56.038;12.706;2024-03-22T03:08:22;101159.25;;;9.77;68.73
83027;BME280;72842;56.038;12.706;2024-03-22T03:10:47;101148.34;;;9.80;68.46
83027;BME280;72842;56.038;12.706;2024-03-22T03:13:12;101139.41;;;9.81;68.62
83027;BME280;72842;56.038;12.706;2024-03-22T03:15:38;101121.19;;;9.73;69.06
83027;BME280;72842;56.038;12.706;2024-03-22T03:18:03;101125.06;;;9.82;68.28
83027;BME280;72842;56.038;12.706;2024-03-22T03:20:29;101116.09;;;9.83;68.55
83027;BME280;72842;56.038;12.706;2024-03-22T03:22:54;101086.97;;;9.65;68.61
83027;BME280;72842;56.038;12.706;2024-03-22T03:25:20;101113.53;;;9.81;68.57
83027;BME280;72842;56.038;12.706;2024-03-22T03:27:46;101111.69;;;9.82;68.88
83027;BME280;72842;56.038;12.706;2024-03-22T03:30:11;101114.25;;;9.83;68.56
83027;BME280;72842;56.038;12.706;2024-03-22T03:32:37;101113.19;;;9.86;67.98
83027;BME280;72842;56.038;12.706;2024-03-22T03:35:02;101102.50;;;9.86;68.82
83027;BME280;72842;56.038;12.706;2024-03-22T03:37:28;101100.66;;;9.86;68.81
83027;BME280;72842;56.038;12.706;2024-03-22T03:39:53;101100.91;;;9.83;69.08
83027;BME280;72842;56.038;12.706;2024-03-22T03:42:19;101096.72;;;9.79;69.19
83027;BME280;72842;56.038;12.706;2024-03-22T03:44:44;101095.75;;;9.80;68.88
83027;BME280;72842;56.038;12.706;2024-03-22T03:47:10;101098.34;;;9.82;69.21
83027;BME280;72842;56.038;12.706;2024-03-22T03:49:35;101098.34;;;9.82;69.03
83027;BME280;72842;56.038;12.706;2024-03-22T03:52:00;101087.53;;;9.83;68.78
83027;BME280;72842;56.038;12.706;2024-03-22T03:54:26;101086.69;;;9.83;69.32
83027;BME280;72842;56.038;12.706;2024-03-22T03:56:51;101074.16;;;9.83;69.13
83027;BME280;72842;56.038;12.706;2024-03-22T03:59:17;101080.38;;;9.84;69.04
83027;BME280;72842;56.038;12.706;2024-03-22T04:01:42;101078.44;;;9.86;69.28
83027;BME280;72842;56.038;12.706;2024-03-22T04:04:08;101064.22;;;9.85;69.54
83027;BME280;72842;56.038;12.706;2024-03-22T04:06:33;101066.69;;;9.88;69.51
83027;BME280;72842;56.038;12.706;2024-03-22T04:08:59;101043.19;;;9.68;69.15
83027;BME280;72842;56.038;12.706;2024-03-22T04:11:25;101060.38;;;9.89;69.51
83027;BME280;72842;56.038;12.706;2024-03-22T04:13:51;101052.47;;;9.88;69.61
83027;BME280;72842;56.038;12.706;2024-03-22T04:16:16;101060.50;;;9.88;69.57
83027;BME280;72842;56.038;12.706;2024-03-22T04:18:42;101056.13;;;9.87;69.49
83027;BME280;72842;56.038;12.706;2024-03-22T04:21:07;101048.84;;;9.89;69.19
83027;BME280;72842;56.038;12.706;2024-03-22T04:23:33;101030.66;;;9.81;69.51
83027;BME280;72842;56.038;12.706;2024-03-22T04:25:59;101042.53;;;9.90;69.13
83027;BME280;72842;56.038;12.706;2024-03-22T04:28:25;101030.84;;;9.91;69.59
83027;BME280;72842;56.038;12.706;2024-03-22T04:31:02;101034.50;;;9.90;69.45
83027;BME280;72842;56.038;12.706;2024-03-22T04:33:29;101027.22;;;9.92;69.26
83027;BME280;72842;56.038;12.706;2024-03-22T04:35:55;101008.94;;;9.86;69.49
83027;BME280;72842;56.038;12.706;2024-03-22T04:38:24;101020.91;;;9.93;69.03
83027;BME280;72842;56.038;12.706;2024-03-22T04:40:50;101026.06;;;9.96;69.69
83027;BME280;72842;56.038;12.706;2024-03-22T04:43:16;101016.22;;;9.96;69.71
83027;BME280;72842;56.038;12.706;2024-03-22T04:45:47;100997.50;;;9.96;69.20
83027;BME280;72842;56.038;12.706;2024-03-22T04:48:14;101006.25;;;9.98;69.45
83027;BME280;72842;56.038;12.706;2024-03-22T04:50:40;100995.06;;;9.93;69.47
83027;BME280;72842;56.038;12.706;2024-03-22T04:53:05;100998.34;;;9.97;69.71
83027;BME280;72842;56.038;12.706;2024-03-22T04:55:31;101004.44;;;9.99;69.80
83027;BME280;72842;56.038;12.706;2024-03-22T04:57:58;101005.31;;;9.99;69.86
83027;BME280;72842;56.038;12.706;2024-03-22T05:00:24;100993.72;;;9.99;69.80
83027;BME280;72842;56.038;12.706;2024-03-22T05:02:51;100985.63;;;10.00;69.63
83027;BME280;72842;56.038;12.706;2024-03-22T05:05:16;100977.69;;;9.99;70.18
83027;BME280;72842;56.038;12.706;2024-03-22T05:07:41;100988.38;;;9.99;69.97
83027;BME280;72842;56.038;12.706;2024-03-22T05:10:07;100984.84;;;9.98;70.12
83027;BME280;72842;56.038;12.706;2024-03-22T05:12:34;100980.38;;;9.99;70.05
83027;BME280;72842;56.038;12.706;2024-03-22T05:14:59;100977.81;;;9.97;70.16
83027;BME280;72842;56.038;12.706;2024-03-22T05:17:24;100968.19;;;9.95;69.87
83027;BME280;72842;56.038;12.706;2024-03-22T05:19:50;100969.91;;;9.96;70.00
83027;BME280;72842;56.038;12.706;2024-03-22T05:22:15;100968.94;;;9.97;70.52
83027;BME280;72842;56.038;12.706;2024-03-22T05:24:41;100961.03;;;9.95;70.22
83027;BME280;72842;56.038;12.706;2024-03-22T05:27:06;100961.16;;;9.94;70.50
83027;BME280;72842;56.038;12.706;2024-03-22T05:29:32;100961.88;;;9.96;70.27
83027;BME280;72842;56.038;12.706;2024-03-22T05:31:57;100959.09;;;9.97;70.32
83027;BME280;72842;56.038;12.706;2024-03-22T05:34:22;100954.59;;;9.98;70.30
83027;BME280;72842;56.038;12.706;2024-03-22T05:36:48;100957.19;;;9.99;70.35
83027;BME280;72842;56.038;12.706;2024-03-22T05:39:14;100945.59;;;9.99;70.25
83027;BME280;72842;56.038;12.706;2024-03-22T05:41:39;100945.59;;;9.99;70.21
83027;BME280;72842;56.038;12.706;2024-03-22T05:44:05;100952.69;;;10.00;70.27
83027;BME280;72842;56.038;12.706;2024-03-22T05:46:31;100947.56;;;9.97;70.74
83027;BME280;72842;56.038;12.706;2024-03-22T05:48:59;100948.19;;;10.00;70.69
83027;BME280;72842;56.038;12.706;2024-03-22T05:51:25;100949.06;;;10.01;70.38
83027;BME280;72842;56.038;12.706;2024-03-22T05:53:51;100940.06;;;10.02;70.39
83027;BME280;72842;56.038;12.706;2024-03-22T05:56:16;100935.56;;;10.03;70.94
83027;BME280;72842;56.038;12.706;2024-03-22T05:58:42;100938.13;;;10.04;70.63
83027;BME280;72842;56.038;12.706;2024-03-22T06:01:08;100922.06;;;10.04;70.43
83027;BME280;72842;56.038;12.706;2024-03-22T06:03:33;100927.41;;;10.04;70.45
83027;BME280;72842;56.038;12.706;2024-03-22T06:05:59;100915.88;;;10.04;70.80
83027;BME280;72842;56.038;12.706;2024-03-22T06:08:26;100919.41;;;10.04;70.95
83027;BME280;72842;56.038;12.706;2024-03-22T06:10:55;100915.03;;;10.03;70.52
83027;BME280;72842;56.038;12.706;2024-03-22T06:13:21;100913.31;;;10.02;70.69
83027;BME280;72842;56.038;12.706;2024-03-22T06:15:48;100905.31;;;10.02;70.90
83027;BME280;72842;56.038;12.706;2024-03-22T06:18:14;100902.63;;;10.02;71.11
83027;BME280;72842;56.038;12.706;2024-03-22T06:20:40;100900.81;;;10.03;70.74
83027;BME280;72842;56.038;12.706;2024-03-22T06:23:06;100906.03;;;10.04;71.08
83027;BME280;72842;56.038;12.706;2024-03-22T06:25:32;100892.78;;;10.03;70.85
83027;BME280;72842;56.038;12.706;2024-03-22T06:27:57;100901.53;;;10.05;71.26
83027;BME280;72842;56.038;12.706;2024-03-22T06:30:23;100886.34;;;10.05;71.01
83027;BME280;72842;56.038;12.706;2024-03-22T06:32:48;100894.38;;;10.05;70.75
83027;BME280;72842;56.038;12.706;2024-03-22T06:35:14;100884.44;;;10.07;70.79
83027;BME280;72842;56.038;12.706;2024-03-22T06:37:40;100886.13;;;10.08;70.84
83027;BME280;72842;56.038;12.706;2024-03-22T06:40:09;100887.84;;;10.09;71.32
83027;BME280;72842;56.038;12.706;2024-03-22T06:42:35;100887.84;;;10.09;70.89
83027;BME280;72842;56.038;12.706;2024-03-22T06:45:00;100894.16;;;10.08;71.20
83027;BME280;72842;56.038;12.706;2024-03-22T06:47:25;100889.78;;;10.07;71.25
83027;BME280;72842;56.038;12.706;2024-03-22T06:49:51;100898.78;;;10.06;71.44
83027;BME280;72842;56.038;12.706;2024-03-22T06:52:16;100883.66;;;10.05;71.10
83027;BME280;72842;56.038;12.706;2024-03-22T06:54:43;100876.63;;;10.04;71.05
83027;BME280;72842;56.038;12.706;2024-03-22T06:57:08;100866.91;;;10.03;71.57
83027;BME280;72842;56.038;12.706;2024-03-22T06:59:34;100863.25;;;10.04;71.39
83027;BME280;72842;56.038;12.706;2024-03-22T07:01:59;100866.78;;;10.05;71.64
83027;BME280;72842;56.038;12.706;2024-03-22T07:04:25;100854.38;;;10.04;71.76
83027;BME280;72842;56.038;12.706;2024-03-22T07:06:50;100857.06;;;10.04;71.39
83027;BME280;72842;56.038;12.706;2024-03-22T07:09:16;100858.75;;;10.05;71.50
83027;BME280;72842;56.038;12.706;2024-03-22T07:11:41;100850.66;;;10.06;71.42
83027;BME280;72842;56.038;12.706;2024-03-22T07:14:07;100849.56;;;10.09;71.57
83027;BME280;72842;56.038;12.706;2024-03-22T07:16:32;100845.91;;;10.10;71.04
83027;BME280;72842;56.038;12.706;2024-03-22T07:18:58;100843.13;;;10.11;71.18
83027;BME280;72842;56.038;12.706;2024-03-22T07:21:23;100839.50;;;10.12;71.79
83027;BME280;72842;56.038;12.706;2024-03-22T07:23:49;100832.22;;;10.14;71.09
83027;BME280;72842;56.038;12.706;2024-03-22T07:26:14;100822.56;;;10.12;71.74
83027;BME280;72842;56.038;12.706;2024-03-22T07:28:40;100830.31;;;10.04;71.54
83027;BME280;72842;56.038;12.706;2024-03-22T07:31:05;100840.44;;;10.11;71.51
83027;BME280;72842;56.038;12.706;2024-03-22T07:33:31;100837.88;;;10.10;71.19
83027;BME280;72842;56.038;12.706;2024-03-22T07:36:01;100836.06;;;10.10;71.56
83027;BME280;72842;56.038;12.706;2024-03-22T07:38:27;100831.56;;;10.11;71.14
83027;BME280;72842;56.038;12.706;2024-03-22T07:40:52;100843.22;;;10.10;72.01
83027;BME280;72842;56.038;12.706;2024-03-22T07:43:18;100848.47;;;10.11;71.46
83027;BME280;72842;56.038;12.706;2024-03-22T07:45:43;100845.69;;;10.13;71.26
83027;BME280;72842;56.038;12.706;2024-03-22T07:48:09;100840.34;;;10.13;71.87
83027;BME280;72842;56.038;12.706;2024-03-22T07:50:35;100835.84;;;10.13;71.56
83027;BME280;72842;56.038;12.706;2024-03-22T07:53:01;100836.06;;;10.10;71.49
83027;BME280;72842;56.038;12.706;2024-03-22T07:55:26;100841.19;;;10.13;71.95
83027;BME280;72842;56.038;12.706;2024-03-22T07:57:51;100835.00;;;10.13;71.79
83027;BME280;72842;56.038;12.706;2024-03-22T08:00:17;100842.06;;;10.14;71.54
83027;BME280;72842;56.038;12.706;2024-03-22T08:02:43;100837.56;;;10.14;72.09
83027;BME280;72842;56.038;12.706;2024-03-22T08:05:08;100830.38;;;10.15;71.67
83027;BME280;72842;56.038;12.706;2024-03-22T08:07:34;100814.22;;;10.16;71.86
83027;BME280;72842;56.038;12.706;2024-03-22T08:10:00;100814.97;;;10.18;71.43
83027;BME280;72842;56.038;12.706;2024-03-22T08:12:27;100819.22;;;10.21;71.42
83027;BME280;72842;56.038;12.706;2024-03-22T08:14:53;100819.09;;;10.22;70.88
83027;BME280;72842;56.038;12.706;2024-03-22T08:17:18;100809.28;;;10.23;71.72
83027;BME280;72842;56.038;12.706;2024-03-22T08:19:43;100814.63;;;10.23;71.29
83027;BME280;72842;56.038;12.706;2024-03-22T08:22:10;100815.50;;;10.23;71.50
83027;BME280;72842;56.038;12.706;2024-03-22T08:24:35;100811.00;;;10.24;71.50
83027;BME280;72842;56.038;12.706;2024-03-22T08:27:01;100808.22;;;10.25;71.45
83027;BME280;72842;56.038;12.706;2024-03-22T08:29:26;100818.91;;;10.25;71.87
83027;BME280;72842;56.038;12.706;2024-03-22T08:31:52;100818.91;;;10.25;71.33
83027;BME280;72842;56.038;12.706;2024-03-22T08:34:18;100825.13;;;10.26;72.05
83027;BME280;72842;56.038;12.706;2024-03-22T08:36:44;100818.91;;;10.25;71.66
83027;BME280;72842;56.038;12.706;2024-03-22T08:39:09;100803.72;;;10.26;71.64
83027;BME280;72842;56.038;12.706;2024-03-22T08:41:37;100799.22;;;10.26;71.66
83027;BME280;72842;56.038;12.706;2024-03-22T08:44:02;100798.13;;;10.29;71.43
83027;BME280;72842;56.038;12.706;2024-03-22T08:46:28;100798.97;;;10.30;71.86
83027;BME280;72842;56.038;12.706;2024-03-22T08:48:55;100794.38;;;10.32;71.93
83027;BME280;72842;56.038;12.706;2024-03-22T08:51:21;100798.88;;;10.31;72.27
83027;BME280;72842;56.038;12.706;2024-03-22T08:53:46;100795.13;;;10.34;71.54
83027;BME280;72842;56.038;12.706;2024-03-22T08:56:12;100792.31;;;10.35;71.10
83027;BME280;72842;56.038;12.706;2024-03-22T08:58:37;100796.69;;;10.36;71.46
83027;BME280;72842;56.038;12.706;2024-03-22T09:01:03;100773.00;;;10.32;71.76
83027;BME280;72842;56.038;12.706;2024-03-22T09:03:28;100784.94;;;10.39;71.59
83027;BME280;72842;56.038;12.706;2024-03-22T09:05:55;100776.66;;;10.42;71.13
83027;BME280;72842;56.038;12.706;2024-03-22T09:08:21;100779.22;;;10.43;71.37
83027;BME280;72842;56.038;12.706;2024-03-22T09:10:47;100789.81;;;10.45;71.30
83027;BME280;72842;56.038;12.706;2024-03-22T09:13:12;100781.78;;;10.45;71.58
83027;BME280;72842;56.038;12.706;2024-03-22T09:15:39;100787.25;;;10.43;71.24
83027;BME280;72842;56.038;12.706;2024-03-22T09:18:04;100780.19;;;10.42;71.31
83027;BME280;72842;56.038;12.706;2024-03-22T09:20:30;100778.34;;;10.43;71.26
83027;BME280;72842;56.038;12.706;2024-03-22T09:22:55;100778.34;;;10.43;71.26
83027;BME280;72842;56.038;12.706;2024-03-22T09:25:23;100779.22;;;10.43;71.22
83027;BME280;72842;56.038;12.706;2024-03-22T09:27:48;100773.75;;;10.45;71.92
83027;BME280;72842;56.038;12.706;2024-03-22T09:30:14;100777.28;;;10.45;72.04
83027;BME280;72842;56.038;12.706;2024-03-22T09:32:40;100770.09;;;10.46;71.53
83027;BME280;72842;56.038;12.706;2024-03-22T09:35:06;100773.63;;;10.46;71.66
83027;BME280;72842;56.038;12.706;2024-03-22T09:37:31;100766.44;;;10.47;71.68
83027;BME280;72842;56.038;12.706;2024-03-22T09:39:58;100761.94;;;10.47;71.66
83027;BME280;72842;56.038;12.706;2024-03-22T09:42:25;100756.47;;;10.49;72.04
83027;BME280;72842;56.038;12.706;2024-03-22T09:44:51;100764.50;;;10.49;71.40
83027;BME280;72842;56.038;12.706;2024-03-22T09:47:18;100768.03;;;10.49;71.52
83027;BME280;72842;56.038;12.706;2024-03-22T09:49:45;100764.50;;;10.49;70.98
83027;BME280;72842;56.038;12.706;2024-03-22T09:52:13;100760.13;;;10.48;71.48
83027;BME280;72842;56.038;12.706;2024-03-22T09:54:41;100741.88;;;10.42;71.15
83027;BME280;72842;56.038;12.706;2024-03-22T09:57:11;100740.41;;;10.49;71.35
83027;BME280;72842;56.038;12.706;2024-03-22T09:59:38;100752.84;;;10.50;71.99
83027;BME280;72842;56.038;12.706;2024-03-22T10:02:07;100751.03;;;10.50;71.65
83027;BME280;72842;56.038;12.706;2024-03-22T10:04:33;100745.69;;;10.50;71.06
83027;BME280;72842;56.038;12.706;2024-03-22T10:07:02;100741.06;;;10.52;71.80
83027;BME280;72842;56.038;12.706;2024-03-22T10:09:28;100736.56;;;10.53;71.15
83027;BME280;72842;56.038;12.706;2024-03-22T10:11:55;100735.91;;;10.49;71.41
83027;BME280;72842;56.038;12.706;2024-03-22T10:14:21;100738.50;;;10.51;71.51
83027;BME280;72842;56.038;12.706;2024-03-22T10:16:46;100732.31;;;10.50;71.46
83027;BME280;72842;56.038;12.706;2024-03-22T10:19:12;100738.50;;;10.51;71.74
83027;BME280;72842;56.038;12.706;2024-03-22T10:21:37;100731.31;;;10.51;71.86
83027;BME280;72842;56.038;12.706;2024-03-22T10:24:03;100737.53;;;10.52;71.62
83027;BME280;72842;56.038;12.706;2024-03-22T10:26:29;100746.41;;;10.52;71.36
83027;BME280;72842;56.038;12.706;2024-03-22T10:28:54;100742.88;;;10.52;71.51
83027;BME280;72842;56.038;12.706;2024-03-22T10:31:20;100733.25;;;10.49;71.24
83027;BME280;72842;56.038;12.706;2024-03-22T10:33:46;100736.56;;;10.53;71.64
83027;BME280;72842;56.038;12.706;2024-03-22T10:36:12;100728.41;;;10.54;71.60
83027;BME280;72842;56.038;12.706;2024-03-22T10:38:39;100736.41;;;10.54;71.46
83027;BME280;72842;56.038;12.706;2024-03-22T10:41:04;100721.59;;;10.50;71.23
83027;BME280;72842;56.038;12.706;2024-03-22T10:43:31;100723.88;;;10.55;71.95
83027;BME280;72842;56.038;12.706;2024-03-22T10:46:02;100725.72;;;10.54;71.85
83027;BME280;72842;56.038;12.706;2024-03-22T10:48:31;100722.06;;;10.56;72.24
83027;BME280;72842;56.038;12.706;2024-03-22T10:51:01;100723.88;;;10.55;72.41
83027;BME280;72842;56.038;12.706;2024-03-22T10:53:27;100724.03;;;10.53;72.37
83027;BME280;72842;56.038;12.706;2024-03-22T10:55:55;100731.19;;;10.53;71.74
83027;BME280;72842;56.038;12.706;2024-03-22T10:58:22;100726.81;;;10.52;72.23
83027;BME280;72842;56.038;12.706;2024-03-22T11:00:51;100725.00;;;10.52;72.23
83027;BME280;72842;56.038;12.706;2024-03-22T11:03:20;100715.13;;;10.53;71.89
83027;BME280;72842;56.038;12.706;2024-03-22T11:05:50;100708.81;;;10.54;72.54
83027;BME280;72842;56.038;12.706;2024-03-22T11:08:31;100702.47;;;10.55;72.17
83027;BME280;72842;56.038;12.706;2024-03-22T11:10:57;100703.34;;;10.56;71.74
83027;BME280;72842;56.038;12.706;2024-03-22T11:13:22;100697.13;;;10.55;72.75
83027;BME280;72842;56.038;12.706;2024-03-22T11:15:49;100703.34;;;10.56;72.04
83027;BME280;72842;56.038;12.706;2024-03-22T11:18:14;100713.94;;;10.57;72.39
83027;BME280;72842;56.038;12.706;2024-03-22T11:20:41;100706.75;;;10.58;72.27
83027;BME280;72842;56.038;12.706;2024-03-22T11:23:07;100691.56;;;10.58;72.52
83027;BME280;72842;56.038;12.706;2024-03-22T11:25:34;100688.03;;;10.58;72.54
83027;BME280;72842;56.038;12.706;2024-03-22T11:28:00;100687.78;;;10.61;72.43
83027;BME280;72842;56.038;12.706;2024-03-22T11:30:31;100693.13;;;10.61;72.18
83027;BME280;72842;56.038;12.706;2024-03-22T11:32:57;100686.78;;;10.62;72.00
83027;BME280;72842;56.038;12.706;2024-03-22T11:35:25;100673.31;;;10.63;72.90
83027;BME280;72842;56.038;12.706;2024-03-22T11:37:51;100679.53;;;10.64;72.82
83027;BME280;72842;56.038;12.706;2024-03-22T11:40:16;100672.34;;;10.64;72.62
83027;BME280;72842;56.038;12.706;2024-03-22T11:42:46;100667.72;;;10.66;72.54
83027;BME280;72842;56.038;12.706;2024-03-22T11:45:14;100657.84;;;10.67;72.60
83027;BME280;72842;56.038;12.706;2024-03-22T11:47:40;100650.69;;;10.67;71.96
83027;BME280;72842;56.038;12.706;2024-03-22T11:50:06;100654.09;;;10.69;72.82
83027;BME280;72842;56.038;12.706;2024-03-22T11:52:32;100646.91;;;10.70;73.13
83027;BME280;72842;56.038;12.706;2024-03-22T11:54:57;100645.94;;;10.71;72.09
83027;BME280;72842;56.038;12.706;2024-03-22T11:57:23;100639.75;;;10.70;72.44
83027;BME280;72842;56.038;12.706;2024-03-22T11:59:50;100636.09;;;10.71;72.51
83027;BME280;72842;56.038;12.706;2024-03-22T12:02:16;100645.09;;;10.70;72.55
83027;BME280;72842;56.038;12.706;2024-03-22T12:04:42;100632.56;;;10.71;72.06
83027;BME280;72842;56.038;12.706;2024-03-22T12:07:14;100634.38;;;10.70;72.96
83027;BME280;72842;56.038;12.706;2024-03-22T12:09:41;100630.72;;;10.71;72.83
83027;BME280;72842;56.038;12.706;2024-03-22T12:12:08;100630.72;;;10.71;72.84
83027;BME280;72842;56.038;12.706;2024-03-22T12:14:35;100637.06;;;10.70;72.94
83027;BME280;72842;56.038;12.706;2024-03-22T12:17:05;100618.31;;;10.70;73.15
83027;BME280;72842;56.038;12.706;2024-03-22T12:19:30;100631.72;;;10.70;72.65
83027;BME280;72842;56.038;12.706;2024-03-22T12:21:56;100622.84;;;10.70;73.26
83027;BME280;72842;56.038;12.706;2024-03-22T12:24:22;100623.06;;;10.67;73.25
83027;BME280;72842;56.038;12.706;2024-03-22T12:26:48;100624.91;;;10.66;72.32
83027;BME280;72842;56.038;12.706;2024-03-22T12:29:15;100614.91;;;10.68;73.40
83027;BME280;72842;56.038;12.706;2024-03-22T12:31:41;100624.66;;;10.69;72.66
83027;BME280;72842;56.038;12.706;2024-03-22T12:34:07;100625.59;;;10.68;72.90
83027;BME280;72842;56.038;12.706;2024-03-22T12:36:32;100623.06;;;10.67;72.99
83027;BME280;72842;56.038;12.706;2024-03-22T12:38:58;100617.84;;;10.65;73.17
83027;BME280;72842;56.038;12.706;2024-03-22T12:41:23;100609.81;;;10.65;72.79
83027;BME280;72842;56.038;12.706;2024-03-22T12:43:48;100606.16;;;10.66;73.63
83027;BME280;72842;56.038;12.706;2024-03-22T12:46:14;100613.34;;;10.66;73.82
83027;BME280;72842;56.038;12.706;2024-03-22T12:48:39;100616.16;;;10.64;73.63
83027;BME280;72842;56.038;12.706;2024-03-22T12:51:06;100609.81;;;10.65;73.61
83027;BME280;72842;56.038;12.706;2024-03-22T12:53:32;100608.84;;;10.66;73.85
83027;BME280;72842;56.038;12.706;2024-03-22T12:55:57;100611.50;;;10.66;72.92
83027;BME280;72842;56.038;12.706;2024-03-22T12:58:23;100591.94;;;10.66;73.40
83027;BME280;72842;56.038;12.706;2024-03-22T13:00:48;100599.81;;;10.67;73.07
83027;BME280;72842;56.038;12.706;2024-03-22T13:03:14;100606.03;;;10.68;73.81
83027;BME280;72842;56.038;12.706;2024-03-22T13:05:41;100598.75;;;10.70;73.64
83027;BME280;72842;56.038;12.706;2024-03-22T13:08:07;100595.69;;;10.74;73.60
83027;BME280;72842;56.038;12.706;2024-03-22T13:10:32;100593.75;;;10.76;72.47
83027;BME280;72842;56.038;12.706;2024-03-22T13:12:58;100591.91;;;10.77;72.58
83027;BME280;72842;56.038;12.706;2024-03-22T13:15:23;100588.97;;;10.80;72.71
83027;BME280;72842;56.038;12.706;2024-03-22T13:17:49;100587.06;;;10.82;72.07
83027;BME280;72842;56.038;12.706;2024-03-22T13:20:15;100592.00;;;10.87;73.05
83027;BME280;72842;56.038;12.706;2024-03-22T13:22:43;100582.03;;;10.89;73.13
83027;BME280;72842;56.038;12.706;2024-03-22T13:25:09;100579.84;;;10.94;72.67
83027;BME280;72842;56.038;12.706;2024-03-22T13:27:36;100578.88;;;10.95;72.54
83027;BME280;72842;56.038;12.706;2024-03-22T13:30:02;100569.84;;;10.96;72.11
83027;BME280;72842;56.038;12.706;2024-03-22T13:32:28;100566.91;;;10.99;72.56
83027;BME280;72842;56.038;12.706;2024-03-22T13:34:53;100560.47;;;11.01;71.92
83027;BME280;72842;56.038;12.706;2024-03-22T13:37:19;100555.69;;;11.05;71.60
83027;BME280;72842;56.038;12.706;2024-03-22T13:39:53;100552.03;;;11.06;71.78
83027;BME280;72842;56.038;12.706;2024-03-22T13:42:18;100551.09;;;11.07;71.98
83027;BME280;72842;56.038;12.706;2024-03-22T13:44:45;100543.03;;;11.07;71.80
83027;BME280;72842;56.038;12.706;2024-03-22T13:47:10;100559.81;;;11.09;72.41
83027;BME280;72842;56.038;12.706;2024-03-22T13:49:36;100513.88;;;10.93;71.73
83027;BME280;72842;56.038;12.706;2024-03-22T13:52:01;100552.13;;;11.16;71.63
83027;BME280;72842;56.038;12.706;2024-03-22T13:54:27;100551.75;;;11.20;71.24
83027;BME280;72842;56.038;12.706;2024-03-22T13:56:52;100544.28;;;11.24;70.58
83027;BME280;72842;56.038;12.706;2024-03-22T13:59:18;100536.88;;;11.27;71.42
83027;BME280;72842;56.038;12.706;2024-03-22T14:01:44;100550.84;;;11.31;70.25
83027;BME280;72842;56.038;12.706;2024-03-22T14:04:12;100548.63;;;11.36;71.13